Davis Station, NV

6:33 AM PST on December 07, 2016 (GMT -0800)
6th and Tamarack | | Change Station
Active Advisory: Winter Weather Advisory

Elev 4210 ft 39.34 °N, 119.20 °W | Updated 10 seconds ago

Overcast
Overcast
11.0 °F
Feels Like 11 °F
N
0.0
Wind Variable Wind from SE
Gusts 0.0 mph

Today
High -- | Low -- °F
--% Chance of Precip.
Yesterday
High -- | Low -- °F
Precip. -- in
Pressure 30.16 in
Visibility 10.0 miles
Clouds Overcast 3400 ft
Windchill 11 °F
Dew Point -2 °F
Humidity 54%
Rainfall 0.00 in
Snow Depth Not available.
7:03 AM 4:33 PM
First Quarter, 53% visible
METAR KCXP 071415Z AUTO 07009G14KT 10SM OVC034 M03/M09 A3016 RMK AO2
Pressure 30.16 in
Visibility 10.0 miles
Clouds Overcast 3400 ft
Windchill 11 °F
Dew Point -2 °F
Humidity 54%
Rainfall 0.00 in
Snow Depth Not available.
7:03 AM 4:33 PM
First Quarter, 53% visible
METAR KCXP 071415Z AUTO 07009G14KT 10SM OVC034 M03/M09 A3016 RMK AO2

10-Day Weather Forecast

Almanac

Astronomy

Dec. 07, 2016 Rise Set
Actual Time
Civil Twilight
Nautical Twilight
Astronomical Twilight
Moon
Length of Visible Light
Length of Day
Tomorrow will be .
, % of the Moon is Illuminated

Today's Extremes

State Highs State Lows

Community

WunderPhotos

Upload Photos

1,956,116 photos uploaded!

WunderBlog® & News

Nearby

Air Quality

  Air Quality AQ Index Pollutant
Not available.

Snow Depth

Station Depth Elevation

Earthquake Activity

City Distance Mag. Time & Date
Minimum magnitude displayed is 2.5.

Coastal Water Temperatures

Place Temperature

Stations

Nearby Weather Stations

Station Location Temp. Windchill Dew Point Humidity Wind Precip. Elev Updated Type
                   

Watches & Warnings

Winter Weather Advisory
Issued: 4:02 AM PST Dec. 7, 2016 – National Weather Service

... Winter Weather Advisory remains in effect from 4 PM this
afternoon to 10 am PST Thursday...

* timing: snow will spread across the area this evening... then
become mixed with freezing rain... rain and snow in the valleys
early Thursday morning

* snow accumulations: 1 to 3 inches.

* Freezing rain accumulations: up to 0.10"

* snow levels: all valley floors this evening... then rising
to over 7000 feet late Thursday morning with mixed winter
precipitation in the valleys.

* Impacts: a light coating of black ice could create very
difficult travel conditions. Ice will also accumulate on
sidewalks... tree limbs and powerlines. Those with travel
plans are urged to maintain an increased awareness while
driving Wednesday night and Thursday morning.

Precautionary/preparedness actions...

Even light snowfall causes major travel delays, especially during
periods of high traffic volume. Be sure to allow extra time to
reach your destination. Leave extra space between vehicles since
it takes longer to stop on slick roadways.